Time;durP1;ratioP1;P1;durP2;ratioP2;P2;SDS_P1;SDS_P2;PMS_P1;PMS_P2;Temp;Humidity;BMP_temperature;BMP_pressure;BME280_temperature;BME280_humidity;BME280_pressure;Samples;Min_cycle;Max_cycle;Signal;HPM_P1;HPM_P2
2022/09/01 00:02:07;;;;;;;4.50;4.10;;;19.50;81.70;;;;;;5060093;28;20461;-68
2022/09/01 00:04:37;;;;;;;3.90;3.60;;;19.50;81.90;;;;;;5067150;28;20474;-67
2022/09/01 00:07:08;;;;;;;4.37;3.97;;;19.50;82.00;;;;;;5080102;28;20938;-68
2022/09/01 00:09:35;;;;;;;4.57;4.27;;;19.50;82.10;;;;;;5064719;28;20462;-68
2022/09/01 00:12:01;;;;;;;4.53;4.13;;;19.40;82.00;;;;;;5056059;28;20972;-68
2022/09/01 00:14:30;;;;;;;3.70;3.40;;;19.40;82.00;;;;;;5055892;28;20446;-68
2022/09/01 00:16:58;;;;;;;3.47;3.27;;;19.40;82.50;;;;;;5062726;28;20458;-69
2022/09/01 00:19:24;;;;;;;3.63;3.37;;;19.40;82.60;;;;;;5065539;28;20460;-68
2022/09/01 00:21:50;;;;;;;3.80;3.50;;;19.40;83.20;;;;;;5063282;28;20458;-68
2022/09/01 00:24:17;;;;;;;4.60;3.43;;;19.30;82.00;;;;;;5063130;28;20296;-68
2022/09/01 00:26:44;;;;;;;3.80;3.57;;;19.30;82.30;;;;;;5074220;28;20234;-67
2022/09/01 00:29:10;;;;;;;3.17;2.97;;;19.30;81.90;;;;;;5052885;28;20468;-68
2022/09/01 00:31:35;;;;;;;3.60;3.30;;;19.30;82.10;;;;;;5051582;28;20457;-68
2022/09/01 00:34:02;;;;;;;5.50;3.43;;;19.30;82.10;;;;;;5065921;28;20223;-69
2022/09/01 00:36:28;;;;;;;4.00;3.70;;;19.20;82.10;;;;;;5067816;28;20246;-68
2022/09/01 00:38:54;;;;;;;3.70;3.50;;;19.20;82.30;;;;;;5059419;28;20460;-68
2022/09/01 00:41:23;;;;;;;3.93;3.43;;;19.20;82.10;;;;;;5068232;28;20453;-68
2022/09/01 00:43:53;;;;;;;3.73;3.43;;;19.20;82.10;;;;;;5080137;28;20722;-69
2022/09/01 00:46:22;;;;;;;3.40;3.20;;;19.10;82.10;;;;;;5066349;28;20461;-69
2022/09/01 00:49:02;;;;;;;3.20;3.00;;;19.10;82.00;;;;;;5039510;28;20545;-69
2022/09/01 00:51:28;;;;;;;3.30;3.10;;;19.10;82.00;;;;;;5061057;28;20456;-67
2022/09/01 00:53:57;;;;;;;4.60;3.33;;;19.10;82.00;;;;;;5071290;28;20479;-68
2022/09/01 00:56:23;;;;;;;3.03;2.83;;;19.10;82.00;;;;;;5086246;28;21025;-68
2022/09/01 00:58:51;;;;;;;4.47;3.03;;;19.10;82.00;;;;;;5065701;28;20473;-69
2022/09/01 01:01:17;;;;;;;2.83;2.63;;;19.00;81.80;;;;;;5049895;28;20229;-68
2022/09/01 01:03:46;;;;;;;3.10;2.90;;;19.00;81.80;;;;;;5047207;28;20541;-68
2022/09/01 01:06:14;;;;;;;3.50;3.20;;;19.00;81.80;;;;;;5048182;28;20211;-68
2022/09/01 01:08:56;;;;;;;4.07;3.73;;;19.00;81.70;;;;;;5060936;28;20449;-69
2022/09/01 01:11:25;;;;;;;3.67;3.37;;;18.90;81.60;;;;;;5065555;28;20526;-68
2022/09/01 01:13:58;;;;;;;3.00;2.70;;;18.90;81.70;;;;;;5068136;28;20482;-69
2022/09/01 01:16:26;;;;;;;3.43;3.13;;;18.90;81.60;;;;;;5065218;28;20457;-69
2022/09/01 01:18:52;;;;;;;2.87;2.67;;;18.90;81.60;;;;;;5032436;28;20948;-69
2022/09/01 01:24:25;;;;;;;5.13;3.13;;;18.90;81.80;;;;;;5067423;28;20555;-68
2022/09/01 01:26:51;;;;;;;3.30;3.10;;;18.90;81.80;;;;;;5062794;28;20993;-68
2022/09/01 01:29:17;;;;;;;2.57;2.37;;;18.80;81.60;;;;;;5040537;28;20807;-69
2022/09/01 01:31:48;;;;;;;3.00;2.67;;;18.80;81.70;;;;;;5060836;28;20493;-69
2022/09/01 01:34:16;;;;;;;2.73;2.53;;;18.80;81.70;;;;;;5063957;28;20461;-69
2022/09/01 01:36:42;;;;;;;4.10;2.90;;;18.80;81.60;;;;;;5062055;28;20476;-70
2022/09/01 01:39:17;;;;;;;2.80;2.60;;;18.80;81.60;;;;;;5045934;28;21051;-68
2022/09/01 01:41:47;;;;;;;3.00;2.70;;;18.70;81.70;;;;;;5060271;28;20511;-68
2022/09/01 01:44:16;;;;;;;3.50;2.80;;;18.70;81.70;;;;;;5067101;28;20988;-68
2022/09/01 01:46:45;;;;;;;3.47;3.17;;;18.70;81.60;;;;;;5066724;28;20453;-68
2022/09/01 01:49:19;;;;;;;2.80;2.60;;;18.60;81.70;;;;;;5061416;28;20575;-69
2022/09/01 01:51:48;;;;;;;3.13;2.20;;;18.60;81.60;;;;;;5058048;28;20472;-68
2022/09/01 01:54:14;;;;;;;2.83;2.63;;;18.60;81.90;;;;;;5063573;28;20512;-69
2022/09/01 01:56:41;;;;;;;3.23;2.93;;;18.60;81.90;;;;;;5052074;28;20466;-69
2022/09/01 01:59:12;;;;;;;2.63;2.43;;;18.60;81.60;;;;;;5064835;28;20457;-69
2022/09/01 02:01:41;;;;;;;2.90;2.70;;;18.50;82.00;;;;;;5066468;28;20457;-69
2022/09/01 02:04:09;;;;;;;3.57;2.80;;;18.50;81.70;;;;;;5064853;28;20544;-69
2022/09/01 02:06:40;;;;;;;3.80;3.60;;;18.50;81.60;;;;;;5066090;28;20504;-68
2022/09/01 02:09:06;;;;;;;2.73;2.47;;;18.50;81.80;;;;;;5063929;28;20480;-69
2022/09/01 02:11:36;;;;;;;3.33;2.70;;;18.50;81.80;;;;;;5065679;28;20477;-68
2022/09/01 02:14:05;;;;;;;2.40;2.30;;;18.50;81.80;;;;;;5060025;28;20243;-68
2022/09/01 02:16:32;;;;;;;2.60;2.27;;;18.40;81.80;;;;;;5062611;28;21077;-70
2022/09/01 02:19:00;;;;;;;2.50;2.30;;;18.40;81.60;;;;;;5039709;28;20474;-69
2022/09/01 02:21:27;;;;;;;2.60;2.40;;;18.40;82.10;;;;;;5060639;28;20452;-68
2022/09/01 02:23:59;;;;;;;2.77;2.57;;;18.30;82.20;;;;;;5063952;28;20462;-68
2022/09/01 02:26:37;;;;;;;2.70;2.50;;;18.30;82.20;;;;;;5066287;28;20461;-69
2022/09/01 02:29:16;;;;;;;2.60;2.40;;;18.30;82.00;;;;;;5064536;28;20453;-68
2022/09/01 02:31:43;;;;;;;2.93;2.73;;;18.30;82.30;;;;;;5048859;28;20449;-68
2022/09/01 02:34:12;;;;;;;2.63;2.43;;;18.30;82.20;;;;;;5047867;28;20450;-68
2022/09/01 02:36:43;;;;;;;2.53;2.33;;;18.30;82.30;;;;;;5065355;28;20453;-69
2022/09/01 02:39:10;;;;;;;2.70;2.50;;;18.30;82.30;;;;;;5048916;28;20481;-69
2022/09/01 02:41:36;;;;;;;2.40;2.30;;;18.30;82.20;;;;;;5066411;28;20460;-69
2022/09/01 02:44:10;;;;;;;2.03;1.93;;;18.30;82.50;;;;;;5063619;28;20699;-68
2022/09/01 02:46:40;;;;;;;3.10;2.80;;;18.20;82.40;;;;;;5048988;28;20278;-68
2022/09/01 02:49:14;;;;;;;4.40;2.80;;;18.20;82.40;;;;;;5064040;28;20456;-68
2022/09/01 02:51:42;;;;;;;2.83;2.63;;;18.20;82.20;;;;;;5053498;28;20450;-68
2022/09/01 02:54:08;;;;;;;2.63;2.43;;;18.20;83.20;;;;;;5051211;28;20441;-69
2022/09/01 02:56:34;;;;;;;3.10;2.90;;;18.20;82.70;;;;;;5065952;28;20485;-68
2022/09/01 02:59:02;;;;;;;3.00;2.80;;;18.20;83.40;;;;;;5064025;28;20523;-69
2022/09/01 03:01:31;;;;;;;3.37;2.47;;;18.20;82.80;;;;;;5057258;28;20220;-68
2022/09/01 03:04:01;;;;;;;3.27;2.53;;;18.20;82.50;;;;;;5057943;28;20797;-70
2022/09/01 03:06:29;;;;;;;3.23;2.90;;;18.20;82.70;;;;;;5065717;28;20472;-68
2022/09/01 03:09:00;;;;;;;3.10;2.83;;;18.10;82.40;;;;;;5063879;28;20457;-68
2022/09/01 03:11:30;;;;;;;2.40;2.30;;;18.10;82.70;;;;;;5066003;28;20446;-68
2022/09/01 03:13:56;;;;;;;2.33;2.10;;;18.10;82.60;;;;;;5063535;28;20529;-69
2022/09/01 03:16:22;;;;;;;4.03;2.47;;;18.10;82.50;;;;;;5064902;28;20454;-68
2022/09/01 03:18:49;;;;;;;3.70;2.67;;;18.10;82.40;;;;;;5064077;28;20446;-68
2022/09/01 03:21:17;;;;;;;2.43;2.23;;;18.10;82.70;;;;;;5065043;28;20454;-69
2022/09/01 03:23:45;;;;;;;3.27;2.97;;;18.00;82.70;;;;;;5061454;28;20466;-67
2022/09/01 03:26:13;;;;;;;2.60;2.43;;;18.10;82.70;;;;;;5062852;28;20470;-68
2022/09/01 03:28:39;;;;;;;3.13;2.60;;;18.00;82.70;;;;;;5065037;28;20996;-68
2022/09/01 03:31:06;;;;;;;3.30;2.67;;;18.00;82.40;;;;;;5067585;28;20454;-68
2022/09/01 03:33:33;;;;;;;2.70;2.40;;;18.00;82.40;;;;;;5063767;28;20454;-69
2022/09/01 03:35:59;;;;;;;3.50;2.67;;;18.00;82.50;;;;;;5063807;28;20458;-70
2022/09/01 03:38:26;;;;;;;2.50;2.30;;;18.00;82.60;;;;;;5046804;28;20448;-68
2022/09/01 03:40:57;;;;;;;2.63;2.47;;;18.00;82.60;;;;;;5063656;28;20446;-69
2022/09/01 03:43:26;;;;;;;3.00;2.57;;;17.90;82.50;;;;;;5064623;28;20465;-69
2022/09/01 03:45:54;;;;;;;2.37;2.20;;;17.90;82.50;;;;;;5062825;28;21043;-69
2022/09/01 03:48:23;;;;;;;2.60;2.40;;;17.90;82.30;;;;;;5061674;28;20454;-69
2022/09/01 03:50:50;;;;;;;2.40;2.20;;;17.90;82.40;;;;;;5043661;28;20466;-69
2022/09/01 03:53:19;;;;;;;2.83;2.63;;;17.90;82.40;;;;;;5059083;28;20537;-69
2022/09/01 03:55:47;;;;;;;2.93;2.27;;;17.90;82.30;;;;;;5065588;28;20222;-69
2022/09/01 03:58:17;;;;;;;2.33;2.23;;;17.90;82.90;;;;;;5068343;28;20873;-69
2022/09/01 04:00:54;;;;;;;3.00;2.57;;;17.90;82.90;;;;;;5040113;28;20459;-68
2022/09/01 04:03:22;;;;;;;2.60;2.40;;;17.90;82.90;;;;;;5065688;28;20554;-69
2022/09/01 04:05:50;;;;;;;2.20;2.10;;;17.90;83.30;;;;;;5063478;28;20501;-70
2022/09/01 04:08:16;;;;;;;2.33;2.23;;;17.80;83.10;;;;;;5066688;28;20465;-68
2022/09/01 04:10:51;;;;;;;2.73;2.53;;;17.90;83.00;;;;;;5068708;28;20544;-68
2022/09/01 04:13:23;;;;;;;3.23;2.93;;;17.80;82.90;;;;;;5060735;28;21174;-69
2022/09/01 04:15:51;;;;;;;2.60;2.40;;;17.80;82.80;;;;;;5066394;28;20522;-69
2022/09/01 04:18:20;;;;;;;2.90;2.70;;;17.80;83.40;;;;;;5060112;28;20468;-69
2022/09/01 04:20:57;;;;;;;3.80;3.50;;;17.80;82.90;;;;;;5066740;28;20481;-69
2022/09/01 04:23:35;;;;;;;2.37;2.27;;;17.80;84.00;;;;;;5068457;28;20963;-69
2022/09/01 04:26:13;;;;;;;2.63;2.43;;;17.70;83.30;;;;;;5071752;27;20515;-69
2022/09/01 04:28:44;;;;;;;5.97;2.47;;;17.80;83.60;;;;;;5071034;28;20557;-68
2022/09/01 04:31:17;;;;;;;3.00;2.77;;;17.70;83.50;;;;;;5050522;28;20457;-69
2022/09/01 04:33:46;;;;;;;2.80;2.60;;;17.70;83.60;;;;;;5054557;28;20477;-69
2022/09/01 04:36:27;;;;;;;3.10;2.87;;;17.70;83.20;;;;;;5066543;28;20453;-69
2022/09/01 04:38:56;;;;;;;2.87;2.67;;;17.70;83.20;;;;;;5064512;28;20485;-68
2022/09/01 04:41:26;;;;;;;2.97;2.67;;;17.70;83.40;;;;;;5068475;28;20528;-69
2022/09/01 04:43:56;;;;;;;4.00;3.20;;;17.70;83.50;;;;;;5065829;28;20465;-68
2022/09/01 04:46:30;;;;;;;2.60;2.40;;;17.70;83.60;;;;;;5049074;28;20544;-69
2022/09/01 04:48:56;;;;;;;4.27;2.40;;;17.60;83.50;;;;;;5048643;28;20460;-69
2022/09/01 04:51:26;;;;;;;3.20;2.97;;;17.60;83.40;;;;;;5068307;28;20995;-68
2022/09/01 04:53:56;;;;;;;2.30;2.20;;;17.60;83.50;;;;;;5049835;28;20223;-69
2022/09/01 04:56:25;;;;;;;3.07;2.73;;;17.60;83.50;;;;;;5048226;28;20458;-69
2022/09/01 04:59:13;;;;;;;2.80;2.60;;;17.60;83.30;;;;;;5060700;28;20446;-69
2022/09/01 05:01:44;;;;;;;3.50;2.73;;;17.60;83.50;;;;;;5053761;28;20878;-68
2022/09/01 05:04:16;;;;;;;2.17;2.07;;;17.60;83.50;;;;;;5040549;28;20474;-69
2022/09/01 05:06:58;;;;;;;3.17;2.87;;;17.60;83.80;;;;;;5051405;28;20466;-68
2022/09/01 05:09:30;;;;;;;3.07;2.87;;;17.60;83.70;;;;;;5050377;28;20457;-68
2022/09/01 05:12:10;;;;;;;3.10;2.90;;;17.50;83.60;;;;;;5066588;28;20498;-69
2022/09/01 05:14:42;;;;;;;2.97;2.77;;;17.50;83.50;;;;;;5056244;28;20450;-68
2022/09/01 05:17:12;;;;;;;4.03;2.90;;;17.50;83.50;;;;;;5082244;28;20541;-68
2022/09/01 05:19:46;;;;;;;4.90;3.30;;;17.50;83.60;;;;;;5067904;28;20461;-68
2022/09/01 05:22:13;;;;;;;3.03;2.67;;;17.50;84.20;;;;;;5053939;28;20599;-69
2022/09/01 05:24:42;;;;;;;3.07;2.87;;;17.50;84.10;;;;;;5068058;28;20477;-68
2022/09/01 05:27:11;;;;;;;3.03;2.53;;;17.50;84.70;;;;;;5050235;28;20821;-68
2022/09/01 05:29:38;;;;;;;3.17;2.73;;;17.50;84.40;;;;;;5059512;28;20462;-69
2022/09/01 05:32:08;;;;;;;4.10;2.80;;;17.40;85.10;;;;;;5065562;28;20449;-68
2022/09/01 05:34:37;;;;;;;2.80;2.57;;;17.40;84.60;;;;;;5049177;28;20965;-68
2022/09/01 05:37:05;;;;;;;3.00;2.70;;;17.40;85.10;;;;;;5064638;28;20457;-68
2022/09/01 05:39:32;;;;;;;3.10;2.83;;;17.40;85.10;;;;;;5049795;28;20463;-69
2022/09/01 05:41:58;;;;;;;4.00;3.70;;;17.40;85.20;;;;;;5062260;28;20461;-69
2022/09/01 05:44:24;;;;;;;3.70;3.40;;;17.40;85.00;;;;;;5062170;28;20480;-69
2022/09/01 05:46:54;;;;;;;3.03;2.73;;;17.40;85.60;;;;;;5060693;28;20449;-68
2022/09/01 05:49:20;;;;;;;3.23;3.03;;;17.40;85.50;;;;;;5064408;28;20452;-68
2022/09/01 05:51:50;;;;;;;3.10;2.90;;;17.40;85.50;;;;;;5044988;28;20503;-68
2022/09/01 05:54:24;;;;;;;7.13;3.60;;;17.40;86.00;;;;;;5065176;28;20453;-68
2022/09/01 05:56:52;;;;;;;2.83;2.63;;;17.40;86.10;;;;;;5063841;28;20441;-69
2022/09/01 05:59:25;;;;;;;2.47;2.30;;;17.40;86.40;;;;;;5062570;28;20984;-70
2022/09/01 06:01:53;;;;;;;2.37;2.27;;;17.40;86.60;;;;;;5057303;28;20507;-67
2022/09/01 06:04:21;;;;;;;3.47;2.57;;;17.40;86.20;;;;;;5063281;28;20474;-67
2022/09/01 06:06:48;;;;;;;2.80;2.70;;;17.40;86.40;;;;;;5057110;28;20454;-70
2022/09/01 06:09:22;;;;;;;3.30;3.00;;;17.40;86.80;;;;;;5065466;28;20481;-69
2022/09/01 06:11:49;;;;;;;2.97;2.77;;;17.40;86.90;;;;;;5034871;28;21043;-68
2022/09/01 06:14:16;;;;;;;3.47;3.17;;;17.40;87.00;;;;;;5065178;28;20454;-69
2022/09/01 06:16:46;;;;;;;3.30;3.00;;;17.40;86.90;;;;;;5067304;28;20469;-68
2022/09/01 06:19:13;;;;;;;4.10;2.67;;;17.40;86.90;;;;;;5044679;28;20972;-69
2022/09/01 06:21:43;;;;;;;2.73;2.53;;;17.40;87.00;;;;;;5062857;28;20492;-69
2022/09/01 06:24:09;;;;;;;3.83;3.50;;;17.40;87.30;;;;;;5044360;28;21028;-69
2022/09/01 06:26:37;;;;;;;2.70;2.50;;;17.40;87.20;;;;;;5041926;28;20212;-68
2022/09/01 06:29:10;;;;;;;2.83;2.53;;;17.40;86.90;;;;;;5061613;28;20220;-68
2022/09/01 06:31:46;;;;;;;3.80;2.90;;;17.40;88.10;;;;;;5056553;28;20457;-68
2022/09/01 06:34:16;;;;;;;4.80;2.83;;;17.40;87.80;;;;;;5047050;28;20493;-68
2022/09/01 06:36:43;;;;;;;3.10;2.80;;;17.40;88.80;;;;;;5066531;28;20836;-69
2022/09/01 06:39:18;;;;;;;3.40;3.20;;;17.40;89.20;;;;;;5062139;28;20453;-68
2022/09/01 06:41:51;;;;;;;2.57;2.37;;;17.40;89.80;;;;;;5065720;28;20807;-68
2022/09/01 06:44:21;;;;;;;3.10;2.90;;;17.40;90.00;;;;;;5064707;28;20492;-69
2022/09/01 06:46:54;;;;;;;2.53;2.33;;;17.40;90.20;;;;;;5057474;28;20461;-69
2022/09/01 06:49:22;;;;;;;3.03;2.47;;;17.40;90.00;;;;;;5063901;28;20854;-69
2022/09/01 06:51:50;;;;;;;3.10;2.90;;;17.40;90.10;;;;;;5048391;28;20761;-68
2022/09/01 06:54:18;;;;;;;3.10;2.90;;;17.40;90.20;;;;;;5054980;28;20482;-68
2022/09/01 06:56:44;;;;;;;3.67;3.10;;;17.40;90.20;;;;;;5064670;28;20461;-67
2022/09/01 06:59:14;;;;;;;3.30;2.73;;;17.40;90.50;;;;;;5062781;28;20829;-69
2022/09/01 07:01:41;;;;;;;4.10;3.10;;;17.50;90.60;;;;;;5060887;28;20460;-70
2022/09/01 07:04:08;;;;;;;2.83;2.63;;;17.50;91.00;;;;;;5061407;28;20452;-69
2022/09/01 07:06:43;;;;;;;3.80;3.50;;;17.50;90.90;;;;;;5063983;28;20454;-69
2022/09/01 07:09:31;;;;;;;3.20;2.90;;;17.50;91.00;;;;;;5060110;28;20454;-68
2022/09/01 07:12:19;;;;;;;3.73;3.43;;;17.60;91.10;;;;;;5060179;28;20453;-69
2022/09/01 07:14:47;;;;;;;3.67;2.77;;;17.60;91.20;;;;;;5060871;28;20961;-69
2022/09/01 07:17:12;;;;;;;3.80;3.50;;;17.60;91.40;;;;;;5053594;28;20465;-69
2022/09/01 07:19:38;;;;;;;3.37;3.17;;;17.60;91.70;;;;;;5042642;28;20461;-69
2022/09/01 07:22:04;;;;;;;3.50;2.83;;;17.60;91.60;;;;;;5051995;28;20261;-69
2022/09/01 07:24:32;;;;;;;2.90;2.70;;;17.70;91.50;;;;;;5061326;28;20247;-69
2022/09/01 07:27:29;;;;;;;3.27;2.97;;;17.70;91.80;;;;;;5052447;28;20485;-69
2022/09/01 07:29:56;;;;;;;3.57;3.30;;;17.70;91.60;;;;;;5065368;28;20477;-69
2022/09/01 07:32:22;;;;;;;3.03;2.70;;;17.70;91.90;;;;;;5060594;28;20228;-69
2022/09/01 07:34:49;;;;;;;3.10;2.80;;;17.70;91.60;;;;;;5063440;28;20458;-70
2022/09/01 07:37:22;;;;;;;3.23;2.90;;;17.70;91.50;;;;;;5046681;28;20820;-69
2022/09/01 07:39:49;;;;;;;4.50;4.10;;;17.70;91.80;;;;;;5057327;28;21034;-69
2022/09/01 07:42:25;;;;;;;2.97;2.77;;;17.80;91.70;;;;;;5066111;28;20532;-69
2022/09/01 07:45:15;;;;;;;3.27;3.07;;;17.80;91.70;;;;;;5060187;28;20470;-69
2022/09/01 07:48:06;;;;;;;4.00;3.10;;;17.80;91.70;;;;;;5044828;28;20458;-70
2022/09/01 07:50:43;;;;;;;3.03;2.80;;;17.90;91.90;;;;;;5061025;28;20959;-69
2022/09/01 07:53:11;;;;;;;3.17;2.97;;;17.90;92.00;;;;;;5077968;28;20511;-69
2022/09/01 07:55:41;;;;;;;3.50;3.20;;;18.00;92.10;;;;;;5050596;28;20511;-69
2022/09/01 07:58:07;;;;;;;3.47;3.27;;;18.00;92.00;;;;;;5055913;28;20455;-69
2022/09/01 08:00:33;;;;;;;4.67;3.47;;;18.00;92.10;;;;;;5063095;28;20541;-69
2022/09/01 08:03:03;;;;;;;2.97;2.77;;;18.10;92.10;;;;;;5060977;28;20450;-69
2022/09/01 08:05:30;;;;;;;5.23;3.07;;;18.10;92.00;;;;;;5066670;28;20894;-69
2022/09/01 08:07:55;;;;;;;3.00;2.80;;;18.20;92.00;;;;;;5064828;28;20219;-67
2022/09/01 08:10:27;;;;;;;3.73;2.80;;;18.20;92.20;;;;;;5067300;28;20468;-69
2022/09/01 08:12:53;;;;;;;3.37;3.17;;;18.30;92.30;;;;;;5064716;28;20457;-69
2022/09/01 08:15:19;;;;;;;3.60;2.97;;;18.40;92.20;;;;;;5066582;28;20560;-69
2022/09/01 08:17:45;;;;;;;3.70;3.40;;;18.40;92.40;;;;;;5063625;28;20537;-68
2022/09/01 08:20:13;;;;;;;3.93;3.63;;;18.40;92.10;;;;;;5048930;28;20216;-69
2022/09/01 08:22:51;;;;;;;4.20;2.97;;;18.50;92.20;;;;;;5064792;28;20455;-69
2022/09/01 08:25:22;;;;;;;3.70;3.37;;;18.50;92.30;;;;;;5050409;28;20940;-71
2022/09/01 08:27:48;;;;;;;5.10;3.50;;;18.60;92.30;;;;;;5062267;28;20457;-69
2022/09/01 08:30:14;;;;;;;3.37;3.10;;;18.70;92.30;;;;;;5067929;28;20467;-69
2022/09/01 08:32:41;;;;;;;4.57;3.13;;;18.70;92.40;;;;;;5056764;28;20465;-69
2022/09/01 08:35:10;;;;;;;3.30;3.00;;;18.80;92.40;;;;;;5042228;28;20870;-68
2022/09/01 08:37:36;;;;;;;3.23;3.03;;;18.80;92.20;;;;;;5054349;28;20456;-68
2022/09/01 08:40:04;;;;;;;3.37;3.07;;;18.90;92.40;;;;;;5069278;28;21009;-70
2022/09/01 08:43:07;;;;;;;3.17;2.87;;;19.00;92.50;;;;;;5069459;28;20445;-69
2022/09/01 08:45:37;;;;;;;2.87;2.67;;;19.10;92.70;;;;;;5064753;28;20504;-68
2022/09/01 08:48:16;;;;;;;3.30;3.10;;;19.20;92.70;;;;;;5067442;28;20973;-69
2022/09/01 08:50:46;;;;;;;3.70;3.03;;;19.30;92.60;;;;;;5066076;28;20479;-68
2022/09/01 08:53:33;;;;;;;3.40;3.10;;;19.40;92.70;;;;;;5069720;28;20441;-69
2022/09/01 08:55:59;;;;;;;3.83;3.53;;;19.40;91.90;;;;;;5052634;28;20462;-69
2022/09/01 08:58:29;;;;;;;3.03;2.77;;;19.50;92.30;;;;;;5065642;28;20452;-69
2022/09/01 09:01:26;;;;;;;3.70;3.40;;;19.60;92.50;;;;;;5067568;28;20230;-68
2022/09/01 09:04:19;;;;;;;3.67;3.37;;;19.70;92.00;;;;;;5068151;28;20485;-68
2022/09/01 09:07:01;;;;;;;3.17;2.90;;;19.70;92.00;;;;;;5071903;28;20489;-68
2022/09/01 09:09:45;;;;;;;3.37;3.00;;;19.70;91.60;;;;;;5063189;28;20477;-69
2022/09/01 09:12:37;;;;;;;4.33;3.20;;;19.80;91.80;;;;;;5081238;28;20430;-69
2022/09/01 09:15:17;;;;;;;3.70;3.40;;;19.90;91.70;;;;;;5064489;28;20451;-68
2022/09/01 09:17:58;;;;;;;3.60;3.30;;;19.90;91.50;;;;;;5050233;28;20532;-68
2022/09/01 09:20:25;;;;;;;3.70;3.40;;;20.00;91.40;;;;;;5047834;28;20445;-69
2022/09/01 09:22:52;;;;;;;3.60;3.30;;;20.00;91.00;;;;;;5066254;28;20501;-69
2022/09/01 09:25:18;;;;;;;7.10;3.60;;;20.00;91.00;;;;;;5070228;28;20470;-69
2022/09/01 09:27:47;;;;;;;3.77;3.47;;;20.00;90.90;;;;;;5061822;28;20473;-69
2022/09/01 09:30:25;;;;;;;3.33;3.13;;;20.10;90.70;;;;;;5060149;28;20462;-69
2022/09/01 09:33:04;;;;;;;3.90;3.50;;;20.10;90.70;;;;;;5046981;28;20450;-68
2022/09/01 09:35:40;;;;;;;3.60;3.23;;;20.20;91.00;;;;;;5061209;28;20453;-69
2022/09/01 09:38:17;;;;;;;3.33;3.13;;;20.30;90.90;;;;;;5067823;28;20471;-69
2022/09/01 09:41:06;;;;;;;4.23;3.80;;;20.40;91.30;;;;;;5068973;28;20957;-68
2022/09/01 09:43:39;;;;;;;3.73;3.43;;;20.50;90.80;;;;;;5063399;28;20950;-69
2022/09/01 09:46:27;;;;;;;4.43;4.10;;;20.70;91.10;;;;;;5066117;28;20553;-69
2022/09/01 09:49:15;;;;;;;3.43;3.13;;;20.70;90.00;;;;;;5061593;28;20572;-69
2022/09/01 09:51:43;;;;;;;3.57;3.27;;;20.70;90.50;;;;;;5066203;28;20481;-68
2022/09/01 09:54:33;;;;;;;3.37;3.17;;;20.80;90.70;;;;;;5062165;28;20442;-69
2022/09/01 09:57:07;;;;;;;3.60;3.30;;;20.90;90.40;;;;;;5063430;28;20523;-69
2022/09/01 09:59:54;;;;;;;3.00;2.80;;;21.00;90.90;;;;;;5077188;28;20445;-69
2022/09/01 10:02:38;;;;;;;3.40;3.10;;;21.10;90.90;;;;;;5067235;28;20540;-70
2022/09/01 10:05:24;;;;;;;3.60;3.30;;;21.30;90.60;;;;;;5051647;28;20477;-69
2022/09/01 10:07:51;;;;;;;4.37;3.60;;;21.30;90.50;;;;;;5070121;28;20460;-68
2022/09/01 10:10:29;;;;;;;4.00;3.30;;;21.30;90.00;;;;;;5069661;28;20528;-69
2022/09/01 10:12:56;;;;;;;4.00;3.70;;;21.30;88.20;;;;;;5062941;28;20532;-70
2022/09/01 10:15:28;;;;;;;5.00;4.10;;;21.30;89.30;;;;;;5065739;28;20451;-69
2022/09/01 10:18:00;;;;;;;4.43;3.70;;;21.40;89.90;;;;;;5068926;28;20462;-69
2022/09/01 10:20:27;;;;;;;3.50;3.20;;;21.50;90.10;;;;;;5069619;28;20945;-69
2022/09/01 10:22:53;;;;;;;4.30;3.43;;;21.80;90.50;;;;;;5065365;28;20458;-70
2022/09/01 10:25:27;;;;;;;3.70;3.40;;;22.00;90.20;;;;;;5050262;28;20462;-70
2022/09/01 10:27:58;;;;;;;4.20;3.90;;;22.10;90.10;;;;;;5063168;28;20683;-70
2022/09/01 10:30:24;;;;;;;3.80;3.50;;;22.20;89.30;;;;;;5072485;28;20448;-70
2022/09/01 10:32:54;;;;;;;3.30;3.10;;;22.30;88.70;;;;;;5065927;28;20824;-69
2022/09/01 10:35:25;;;;;;;3.40;3.20;;;22.30;87.40;;;;;;5068938;28;20230;-70
2022/09/01 10:37:52;;;;;;;3.60;3.30;;;22.30;86.70;;;;;;5067032;28;20445;-70
2022/09/01 10:40:34;;;;;;;3.60;3.40;;;22.30;86.70;;;;;;5068901;28;20449;-70
2022/09/01 10:43:33;;;;;;;4.87;3.97;;;22.40;85.90;;;;;;5079685;28;20507;-69
2022/09/01 10:46:19;;;;;;;6.63;3.60;;;22.50;84.60;;;;;;5065786;28;20530;-70
2022/09/01 10:48:53;;;;;;;4.83;3.40;;;22.40;84.60;;;;;;5048112;28;20449;-69
2022/09/01 10:51:18;;;;;;;4.60;4.10;;;22.60;85.60;;;;;;5060719;28;20449;-70
2022/09/01 10:53:51;;;;;;;3.30;3.00;;;22.80;85.50;;;;;;5066965;28;20453;-69
2022/09/01 10:56:23;;;;;;;4.10;3.80;;;22.90;85.30;;;;;;5073744;28;20305;-70
2022/09/01 10:59:27;;;;;;;4.23;3.93;;;23.00;83.70;;;;;;5064220;28;20473;-70
2022/09/01 11:01:53;;;;;;;4.07;3.70;;;22.80;83.30;;;;;;5076854;28;20448;-70
2022/09/01 11:04:20;;;;;;;4.00;3.70;;;22.80;82.90;;;;;;5062658;28;20534;-69
2022/09/01 11:07:07;;;;;;;4.33;4.10;;;22.90;83.40;;;;;;5078083;28;20211;-70
2022/09/01 11:10:10;;;;;;;3.77;3.50;;;22.90;82.90;;;;;;5073275;28;20442;-69
2022/09/01 11:12:58;;;;;;;4.30;3.63;;;23.10;83.60;;;;;;5082584;28;20455;-69
2022/09/01 11:15:35;;;;;;;4.10;3.70;;;23.00;81.60;;;;;;5064408;28;20458;-71
2022/09/01 11:18:06;;;;;;;3.93;3.70;;;23.20;81.60;;;;;;5064884;28;21012;-70
2022/09/01 11:20:36;;;;;;;4.10;3.70;;;23.20;80.90;;;;;;5067459;28;20450;-69
2022/09/01 11:23:12;;;;;;;4.10;3.70;;;23.20;81.10;;;;;;5064387;28;21004;-69
2022/09/01 11:25:43;;;;;;;4.07;3.67;;;23.20;80.30;;;;;;5057591;28;20500;-69
2022/09/01 11:28:31;;;;;;;3.80;3.50;;;23.10;79.70;;;;;;5064710;28;20518;-70
2022/09/01 11:31:07;;;;;;;3.43;3.13;;;23.10;80.30;;;;;;5084207;28;20455;-70
2022/09/01 11:34:10;;;;;;;3.63;3.43;;;23.10;80.50;;;;;;5065340;28;20449;-69
2022/09/01 11:36:43;;;;;;;4.03;3.73;;;23.30;81.20;;;;;;5059116;28;20475;-70
2022/09/01 11:39:25;;;;;;;4.50;4.20;;;23.60;81.60;;;;;;5044421;28;20441;-70
2022/09/01 11:42:17;;;;;;;3.83;3.53;;;23.70;80.30;;;;;;5062471;28;20449;-70
2022/09/01 11:45:17;;;;;;;4.10;3.80;;;23.80;79.00;;;;;;5066032;28;20988;-70
2022/09/01 11:47:49;;;;;;;4.33;3.93;;;23.70;79.00;;;;;;5039936;28;20973;-69
2022/09/01 11:50:25;;;;;;;4.33;4.03;;;23.80;79.00;;;;;;5068312;28;20445;-70
2022/09/01 11:53:05;;;;;;;4.27;3.97;;;23.80;78.40;;;;;;5067554;28;20545;-70
2022/09/01 11:55:33;;;;;;;3.80;3.50;;;23.90;78.50;;;;;;5067292;28;20460;-69
2022/09/01 11:57:59;;;;;;;4.10;3.80;;;24.10;79.30;;;;;;5064340;28;20472;-68
2022/09/01 12:00:37;;;;;;;4.13;3.83;;;24.20;78.20;;;;;;5059040;28;21027;-68
2022/09/01 12:03:19;;;;;;;3.80;3.60;;;24.00;76.70;;;;;;5060854;28;20226;-68
2022/09/01 12:05:48;;;;;;;4.30;3.90;;;24.00;77.30;;;;;;5045735;28;20563;-69
2022/09/01 12:08:17;;;;;;;4.40;4.10;;;23.80;75.30;;;;;;5063852;28;20461;-69
2022/09/01 12:10:44;;;;;;;4.60;4.30;;;23.60;75.20;;;;;;5040419;28;20459;-69
2022/09/01 12:13:21;;;;;;;4.00;3.60;;;23.50;75.30;;;;;;5070037;28;20464;-70
2022/09/01 12:15:56;;;;;;;3.87;3.57;;;23.50;75.60;;;;;;5054771;28;20452;-69
2022/09/01 12:18:26;;;;;;;4.43;3.60;;;23.70;76.10;;;;;;5060465;28;20448;-70
2022/09/01 12:20:58;;;;;;;3.90;3.63;;;23.80;76.20;;;;;;5045485;28;20507;-69
2022/09/01 12:23:33;;;;;;;4.30;4.00;;;23.80;75.00;;;;;;5059661;28;20457;-70
2022/09/01 12:26:05;;;;;;;4.27;3.97;;;23.80;75.90;;;;;;5067038;28;20468;-69
2022/09/01 12:28:33;;;;;;;4.13;3.80;;;23.80;75.20;;;;;;5068903;28;20543;-69
2022/09/01 12:31:04;;;;;;;4.73;3.77;;;23.80;74.10;;;;;;5078413;28;20468;-70
2022/09/01 12:33:31;;;;;;;4.50;4.10;;;23.80;74.20;;;;;;5068256;28;20483;-68
2022/09/01 12:36:21;;;;;;;3.90;3.63;;;23.90;75.00;;;;;;5059926;28;20453;-69
2022/09/01 12:38:47;;;;;;;4.23;3.93;;;24.10;75.70;;;;;;5069857;28;20547;-69
2022/09/01 12:41:34;;;;;;;3.77;3.50;;;24.30;75.10;;;;;;5085565;28;20448;-69
2022/09/01 12:44:25;;;;;;;5.27;4.73;;;24.40;74.80;;;;;;5064893;28;20462;-69
2022/09/01 12:46:51;;;;;;;3.87;3.60;;;24.50;74.00;;;;;;5065302;28;20456;-69
2022/09/01 12:49:21;;;;;;;3.97;3.67;;;24.50;74.80;;;;;;5067889;28;20453;-68
2022/09/01 12:51:47;;;;;;;4.63;4.10;;;24.60;74.10;;;;;;5056640;28;20471;-68
2022/09/01 12:54:14;;;;;;;4.00;3.67;;;24.60;73.50;;;;;;5065710;28;20539;-69
2022/09/01 12:56:46;;;;;;;4.07;3.77;;;24.60;73.00;;;;;;5065505;28;20223;-67
2022/09/01 12:59:24;;;;;;;4.20;3.83;;;24.50;72.10;;;;;;5062253;28;21022;-69
2022/09/01 13:01:50;;;;;;;4.10;3.80;;;24.60;72.30;;;;;;5065265;28;20460;-69
2022/09/01 13:04:26;;;;;;;3.83;3.63;;;24.60;73.20;;;;;;5061480;28;20461;-70
2022/09/01 13:06:55;;;;;;;4.30;4.00;;;24.90;72.90;;;;;;5062339;28;20465;-68
2022/09/01 13:09:21;;;;;;;7.13;3.63;;;24.80;70.80;;;;;;5064637;28;20972;-69
2022/09/01 13:11:48;;;;;;;4.10;3.70;;;24.60;70.20;;;;;;5058210;28;20934;-69
2022/09/01 13:14:15;;;;;;;3.90;3.60;;;24.70;71.30;;;;;;5047404;28;20548;-69
2022/09/01 13:16:41;;;;;;;6.13;3.37;;;24.80;71.50;;;;;;5065868;28;20461;-68